sensor_id;sensor_type;location;lat;lon;timestamp;pressure;altitude;pressure_sealevel;temperature;humidity
76598;BME280;65486;53.144;18.134;2023-09-19T00:00:48;100107.95;;;19.61;68.09
76598;BME280;65486;53.144;18.134;2023-09-19T00:03:35;100115.13;;;19.59;68.07
76598;BME280;65486;53.144;18.134;2023-09-19T00:06:05;100118.63;;;19.57;68.16
76598;BME280;65486;53.144;18.134;2023-09-19T00:08:34;100118.23;;;19.57;68.54
76598;BME280;65486;53.144;18.134;2023-09-19T00:11:01;100117.00;;;19.57;68.77
76598;BME280;65486;53.144;18.134;2023-09-19T00:13:32;100115.31;;;19.57;68.90
76598;BME280;65486;53.144;18.134;2023-09-19T00:16:09;100118.08;;;19.57;68.89
76598;BME280;65486;53.144;18.134;2023-09-19T00:18:38;100123.84;;;19.56;69.08
76598;BME280;65486;53.144;18.134;2023-09-19T00:21:05;100121.65;;;19.56;69.31
76598;BME280;65486;53.144;18.134;2023-09-19T00:23:34;100125.45;;;19.58;69.35
76598;BME280;65486;53.144;18.134;2023-09-19T00:26:01;100131.21;;;19.60;69.30
76598;BME280;65486;53.144;18.134;2023-09-19T00:28:28;100131.11;;;19.61;69.52
76598;BME280;65486;53.144;18.134;2023-09-19T00:30:56;100129.20;;;19.62;69.52
76598;BME280;65486;53.144;18.134;2023-09-19T00:33:23;100132.16;;;19.62;69.70
76598;BME280;65486;53.144;18.134;2023-09-19T00:35:52;100133.52;;;19.61;69.74
76598;BME280;65486;53.144;18.134;2023-09-19T00:38:21;100132.44;;;19.57;69.69
76598;BME280;65486;53.144;18.134;2023-09-19T00:40:50;100131.45;;;19.55;69.74
76598;BME280;65486;53.144;18.134;2023-09-19T00:43:20;100128.89;;;19.51;69.76
76598;BME280;65486;53.144;18.134;2023-09-19T00:45:49;100129.83;;;19.47;69.73
76598;BME280;65486;53.144;18.134;2023-09-19T00:48:18;100131.75;;;19.43;70.09
76598;BME280;65486;53.144;18.134;2023-09-19T00:50:48;100127.23;;;19.40;70.37
76598;BME280;65486;53.144;18.134;2023-09-19T00:53:19;100124.02;;;19.39;70.60
76598;BME280;65486;53.144;18.134;2023-09-19T00:55:48;100118.82;;;19.38;70.82
76598;BME280;65486;53.144;18.134;2023-09-19T00:58:16;100116.45;;;19.40;70.78
76598;BME280;65486;53.144;18.134;2023-09-19T01:00:45;100112.79;;;19.43;71.32
76598;BME280;65486;53.144;18.134;2023-09-19T01:03:13;100107.80;;;19.45;71.14
76598;BME280;65486;53.144;18.134;2023-09-19T01:05:41;100101.96;;;19.47;71.15
76598;BME280;65486;53.144;18.134;2023-09-19T01:08:09;100098.79;;;19.50;71.42
76598;BME280;65486;53.144;18.134;2023-09-19T01:10:52;100094.52;;;19.53;71.33
76598;BME280;65486;53.144;18.134;2023-09-19T01:13:30;100097.98;;;19.56;71.40
76598;BME280;65486;53.144;18.134;2023-09-19T01:16:39;100099.23;;;19.61;71.40
76598;BME280;65486;53.144;18.134;2023-09-19T01:22:00;100095.97;;;19.71;71.41
76598;BME280;65486;53.144;18.134;2023-09-19T01:30:26;100087.14;;;19.78;71.12
76598;BME280;65486;53.144;18.134;2023-09-19T01:32:56;100083.13;;;19.81;71.15
76598;BME280;65486;53.144;18.134;2023-09-19T01:35:24;100077.06;;;19.83;71.10
76598;BME280;65486;53.144;18.134;2023-09-19T01:37:52;100077.13;;;19.86;71.26
76598;BME280;65486;53.144;18.134;2023-09-19T01:40:22;100070.00;;;19.87;71.08
76598;BME280;65486;53.144;18.134;2023-09-19T01:42:58;100063.27;;;19.88;71.14
76598;BME280;65486;53.144;18.134;2023-09-19T01:48:12;100057.36;;;19.90;70.80
76598;BME280;65486;53.144;18.134;2023-09-19T01:51:00;100060.83;;;19.90;70.97
76598;BME280;65486;53.144;18.134;2023-09-19T01:54:00;100070.26;;;19.89;71.01
76598;BME280;65486;53.144;18.134;2023-09-19T01:56:38;100073.80;;;19.87;71.10
76598;BME280;65486;53.144;18.134;2023-09-19T01:59:11;100077.63;;;19.86;71.54
76598;BME280;65486;53.144;18.134;2023-09-19T02:01:42;100081.73;;;19.85;71.81
76598;BME280;65486;53.144;18.134;2023-09-19T02:04:11;100082.59;;;19.83;72.20
76598;BME280;65486;53.144;18.134;2023-09-19T02:06:41;100078.19;;;19.81;72.21
76598;BME280;65486;53.144;18.134;2023-09-19T02:09:09;100082.79;;;19.80;72.94
76598;BME280;65486;53.144;18.134;2023-09-19T02:11:36;100080.09;;;19.79;73.14
76598;BME280;65486;53.144;18.134;2023-09-19T02:14:04;100095.10;;;19.77;73.42
76598;BME280;65486;53.144;18.134;2023-09-19T02:16:35;100100.05;;;19.72;73.80
76598;BME280;65486;53.144;18.134;2023-09-19T02:19:03;100095.02;;;19.66;73.93
76598;BME280;65486;53.144;18.134;2023-09-19T02:21:33;100085.36;;;19.61;74.24
76598;BME280;65486;53.144;18.134;2023-09-19T02:24:01;100076.54;;;19.55;74.23
76598;BME280;65486;53.144;18.134;2023-09-19T02:26:31;100076.09;;;19.50;74.47
76598;BME280;65486;53.144;18.134;2023-09-19T02:28:57;100082.63;;;19.44;75.18
76598;BME280;65486;53.144;18.134;2023-09-19T02:31:26;100090.41;;;19.38;75.61
76598;BME280;65486;53.144;18.134;2023-09-19T02:33:56;100095.56;;;19.33;75.95
76598;BME280;65486;53.144;18.134;2023-09-19T02:36:23;100086.77;;;19.28;76.45
76598;BME280;65486;53.144;18.134;2023-09-19T02:38:50;100083.25;;;19.24;76.39
76598;BME280;65486;53.144;18.134;2023-09-19T02:41:17;100086.97;;;19.21;76.64
76598;BME280;65486;53.144;18.134;2023-09-19T02:43:44;100086.26;;;19.19;76.93
76598;BME280;65486;53.144;18.134;2023-09-19T02:46:11;100097.48;;;19.17;77.13
76598;BME280;65486;53.144;18.134;2023-09-19T02:48:40;100104.98;;;19.16;77.38
76598;BME280;65486;53.144;18.134;2023-09-19T02:51:07;100102.33;;;19.13;77.43
76598;BME280;65486;53.144;18.134;2023-09-19T02:53:34;100104.39;;;19.08;77.76
76598;BME280;65486;53.144;18.134;2023-09-19T02:56:02;100106.59;;;19.07;77.95
76598;BME280;65486;53.144;18.134;2023-09-19T02:58:30;100115.31;;;19.06;78.11
76598;BME280;65486;53.144;18.134;2023-09-19T03:01:11;100121.13;;;19.05;78.21
76598;BME280;65486;53.144;18.134;2023-09-19T03:03:39;100120.38;;;19.02;78.66
76598;BME280;65486;53.144;18.134;2023-09-19T03:06:06;100117.93;;;19.00;79.52
76598;BME280;65486;53.144;18.134;2023-09-19T03:08:36;100116.30;;;18.97;79.91
76598;BME280;65486;53.144;18.134;2023-09-19T03:11:04;100127.83;;;18.95;81.04
76598;BME280;65486;53.144;18.134;2023-09-19T03:13:37;100131.44;;;18.91;81.13
76598;BME280;65486;53.144;18.134;2023-09-19T03:16:08;100130.86;;;18.86;81.45
76598;BME280;65486;53.144;18.134;2023-09-19T03:18:35;100132.23;;;18.82;81.57
76598;BME280;65486;53.144;18.134;2023-09-19T03:21:02;100127.02;;;18.79;82.05
76598;BME280;65486;53.144;18.134;2023-09-19T03:23:29;100121.35;;;18.77;82.28
76598;BME280;65486;53.144;18.134;2023-09-19T03:25:56;100114.21;;;18.73;82.48
76598;BME280;65486;53.144;18.134;2023-09-19T03:28:25;100118.37;;;18.71;82.97
76598;BME280;65486;53.144;18.134;2023-09-19T03:30:58;100118.49;;;18.70;82.94
76598;BME280;65486;53.144;18.134;2023-09-19T03:33:27;100120.70;;;18.67;83.00
76598;BME280;65486;53.144;18.134;2023-09-19T03:35:54;100120.16;;;18.64;83.23
76598;BME280;65486;53.144;18.134;2023-09-19T03:38:21;100120.68;;;18.62;83.49
76598;BME280;65486;53.144;18.134;2023-09-19T03:40:48;100121.82;;;18.59;83.61
76598;BME280;65486;53.144;18.134;2023-09-19T03:43:15;100112.27;;;18.59;84.14
76598;BME280;65486;53.144;18.134;2023-09-19T03:45:45;100118.02;;;18.58;84.15
76598;BME280;65486;53.144;18.134;2023-09-19T03:48:13;100114.55;;;18.56;84.20
76598;BME280;65486;53.144;18.134;2023-09-19T03:50:40;100115.59;;;18.55;84.52
76598;BME280;65486;53.144;18.134;2023-09-19T03:53:08;100112.96;;;18.53;84.83
76598;BME280;65486;53.144;18.134;2023-09-19T03:55:35;100118.60;;;18.52;84.58
76598;BME280;65486;53.144;18.134;2023-09-19T03:58:02;100118.34;;;18.50;84.82
76598;BME280;65486;53.144;18.134;2023-09-19T04:00:31;100120.83;;;18.47;85.06
76598;BME280;65486;53.144;18.134;2023-09-19T04:03:01;100119.21;;;18.46;85.34
76598;BME280;65486;53.144;18.134;2023-09-19T04:05:32;100120.39;;;18.44;85.53
76598;BME280;65486;53.144;18.134;2023-09-19T04:08:00;100117.50;;;18.43;85.43
76598;BME280;65486;53.144;18.134;2023-09-19T04:10:28;100119.41;;;18.42;85.51
76598;BME280;65486;53.144;18.134;2023-09-19T04:12:56;100112.34;;;18.40;85.59
76598;BME280;65486;53.144;18.134;2023-09-19T04:15:23;100109.23;;;18.37;85.72
76598;BME280;65486;53.144;18.134;2023-09-19T04:17:53;100105.17;;;18.33;85.95
76598;BME280;65486;53.144;18.134;2023-09-19T04:20:21;100103.36;;;18.30;85.76
76598;BME280;65486;53.144;18.134;2023-09-19T04:22:52;100100.36;;;18.27;85.88
76598;BME280;65486;53.144;18.134;2023-09-19T04:25:19;100094.42;;;18.24;85.82
76598;BME280;65486;53.144;18.134;2023-09-19T04:27:47;100093.59;;;18.21;86.06
76598;BME280;65486;53.144;18.134;2023-09-19T04:30:14;100093.35;;;18.17;86.18
76598;BME280;65486;53.144;18.134;2023-09-19T04:32:41;100097.11;;;18.14;86.26
76598;BME280;65486;53.144;18.134;2023-09-19T04:35:10;100100.19;;;18.12;86.39
76598;BME280;65486;53.144;18.134;2023-09-19T04:37:39;100097.13;;;18.10;86.50
76598;BME280;65486;53.144;18.134;2023-09-19T04:40:07;100096.19;;;18.11;86.85
76598;BME280;65486;53.144;18.134;2023-09-19T04:42:41;100112.04;;;18.11;86.97
76598;BME280;65486;53.144;18.134;2023-09-19T04:45:09;100112.70;;;18.10;86.76
76598;BME280;65486;53.144;18.134;2023-09-19T04:47:37;100111.94;;;18.09;86.87
76598;BME280;65486;53.144;18.134;2023-09-19T04:50:08;100121.20;;;18.08;86.92
76598;BME280;65486;53.144;18.134;2023-09-19T04:52:44;100122.88;;;18.09;87.31
76598;BME280;65486;53.144;18.134;2023-09-19T04:55:12;100113.52;;;18.13;87.67
76598;BME280;65486;53.144;18.134;2023-09-19T04:57:44;100111.42;;;18.17;87.53
76598;BME280;65486;53.144;18.134;2023-09-19T05:00:13;100114.13;;;18.21;87.46
76598;BME280;65486;53.144;18.134;2023-09-19T05:02:41;100115.02;;;18.25;87.43
76598;BME280;65486;53.144;18.134;2023-09-19T05:05:09;100111.02;;;18.27;87.24
76598;BME280;65486;53.144;18.134;2023-09-19T05:07:41;100107.01;;;18.29;87.15
76598;BME280;65486;53.144;18.134;2023-09-19T05:10:09;100100.69;;;18.29;87.21
76598;BME280;65486;53.144;18.134;2023-09-19T05:12:40;100097.34;;;18.28;86.99
76598;BME280;65486;53.144;18.134;2023-09-19T05:15:07;100099.46;;;18.28;87.05
76598;BME280;65486;53.144;18.134;2023-09-19T05:17:37;100102.73;;;18.26;86.95
76598;BME280;65486;53.144;18.134;2023-09-19T05:20:06;100099.44;;;18.24;87.13
76598;BME280;65486;53.144;18.134;2023-09-19T05:23:06;100097.33;;;18.23;87.74
76598;BME280;65486;53.144;18.134;2023-09-19T05:25:39;100103.58;;;18.22;87.56
76598;BME280;65486;53.144;18.134;2023-09-19T05:28:08;100107.54;;;18.23;87.41
76598;BME280;65486;53.144;18.134;2023-09-19T05:30:36;100111.27;;;18.23;87.43
76598;BME280;65486;53.144;18.134;2023-09-19T05:33:03;100116.80;;;18.23;87.59
76598;BME280;65486;53.144;18.134;2023-09-19T05:35:33;100108.58;;;18.26;87.57
76598;BME280;65486;53.144;18.134;2023-09-19T05:38:00;100116.88;;;18.30;87.68
76598;BME280;65486;53.144;18.134;2023-09-19T05:40:27;100120.30;;;18.34;87.88
76598;BME280;65486;53.144;18.134;2023-09-19T05:42:58;100123.67;;;18.39;87.69
76598;BME280;65486;53.144;18.134;2023-09-19T05:45:25;100124.20;;;18.43;87.67
76598;BME280;65486;53.144;18.134;2023-09-19T05:47:54;100128.59;;;18.46;87.71
76598;BME280;65486;53.144;18.134;2023-09-19T05:50:27;100129.73;;;18.49;87.59
76598;BME280;65486;53.144;18.134;2023-09-19T05:52:54;100126.27;;;18.51;87.47
76598;BME280;65486;53.144;18.134;2023-09-19T05:55:22;100128.15;;;18.53;87.55
76598;BME280;65486;53.144;18.134;2023-09-19T05:57:52;100126.87;;;18.53;87.69
76598;BME280;65486;53.144;18.134;2023-09-19T06:00:21;100128.17;;;18.55;87.52
76598;BME280;65486;53.144;18.134;2023-09-19T06:02:53;100124.08;;;18.53;87.20
76598;BME280;65486;53.144;18.134;2023-09-19T06:05:24;100121.91;;;18.55;87.32
76598;BME280;65486;53.144;18.134;2023-09-19T06:07:51;100125.71;;;18.56;87.25
76598;BME280;65486;53.144;18.134;2023-09-19T06:10:20;100122.25;;;18.55;87.11
76598;BME280;65486;53.144;18.134;2023-09-19T06:12:48;100136.54;;;18.54;86.81
76598;BME280;65486;53.144;18.134;2023-09-19T06:15:16;100134.13;;;18.52;87.01
76598;BME280;65486;53.144;18.134;2023-09-19T06:17:50;100132.70;;;18.50;87.05
76598;BME280;65486;53.144;18.134;2023-09-19T06:20:17;100138.27;;;18.49;86.96
76598;BME280;65486;53.144;18.134;2023-09-19T06:22:47;100139.05;;;18.44;86.77
76598;BME280;65486;53.144;18.134;2023-09-19T06:25:15;100144.99;;;18.41;86.93
76598;BME280;65486;53.144;18.134;2023-09-19T06:27:46;100142.77;;;18.37;87.36
76598;BME280;65486;53.144;18.134;2023-09-19T06:30:15;100149.77;;;18.36;87.39
76598;BME280;65486;53.144;18.134;2023-09-19T06:32:57;100152.46;;;18.33;87.19
76598;BME280;65486;53.144;18.134;2023-09-19T06:35:27;100159.70;;;18.30;86.83
76598;BME280;65486;53.144;18.134;2023-09-19T06:37:57;100159.86;;;18.28;86.91
76598;BME280;65486;53.144;18.134;2023-09-19T06:40:26;100169.59;;;18.27;87.23
76598;BME280;65486;53.144;18.134;2023-09-19T06:42:54;100170.95;;;18.25;87.09
76598;BME280;65486;53.144;18.134;2023-09-19T06:45:23;100162.54;;;18.20;87.23
76598;BME280;65486;53.144;18.134;2023-09-19T06:47:58;100175.41;;;18.25;87.21
76598;BME280;65486;53.144;18.134;2023-09-19T06:50:27;100174.05;;;18.27;87.07
76598;BME280;65486;53.144;18.134;2023-09-19T06:52:55;100173.38;;;18.29;86.96
76598;BME280;65486;53.144;18.134;2023-09-19T06:55:23;100174.21;;;18.31;87.05
76598;BME280;65486;53.144;18.134;2023-09-19T06:57:52;100178.77;;;18.32;86.97
76598;BME280;65486;53.144;18.134;2023-09-19T07:00:22;100181.99;;;18.34;86.61
76598;BME280;65486;53.144;18.134;2023-09-19T07:05:35;100191.03;;;18.43;86.98
76598;BME280;65486;53.144;18.134;2023-09-19T07:08:10;100191.15;;;18.45;86.72
76598;BME280;65486;53.144;18.134;2023-09-19T07:10:40;100192.59;;;18.46;86.74
76598;BME280;65486;53.144;18.134;2023-09-19T07:13:22;100193.02;;;18.48;86.62
76598;BME280;65486;53.144;18.134;2023-09-19T07:15:49;100193.27;;;18.52;86.89
76598;BME280;65486;53.144;18.134;2023-09-19T07:18:17;100197.35;;;18.57;86.68
76598;BME280;65486;53.144;18.134;2023-09-19T07:20:45;100199.04;;;18.62;86.60
76598;BME280;65486;53.144;18.134;2023-09-19T07:23:20;100200.56;;;18.68;86.36
76598;BME280;65486;53.144;18.134;2023-09-19T07:25:57;100194.34;;;18.69;86.24
76598;BME280;65486;53.144;18.134;2023-09-19T07:28:25;100196.00;;;18.82;86.14
76598;BME280;65486;53.144;18.134;2023-09-19T07:30:55;100197.72;;;18.90;85.49
76598;BME280;65486;53.144;18.134;2023-09-19T07:33:22;100194.40;;;18.99;85.28
76598;BME280;65486;53.144;18.134;2023-09-19T07:35:51;100183.96;;;18.98;85.18
76598;BME280;65486;53.144;18.134;2023-09-19T07:38:18;100197.83;;;19.10;85.14
76598;BME280;65486;53.144;18.134;2023-09-19T07:40:45;100204.73;;;19.12;84.92
76598;BME280;65486;53.144;18.134;2023-09-19T07:43:12;100208.90;;;19.14;85.00
76598;BME280;65486;53.144;18.134;2023-09-19T07:45:42;100200.05;;;19.11;84.96
76598;BME280;65486;53.144;18.134;2023-09-19T07:48:09;100206.67;;;19.20;84.77
76598;BME280;65486;53.144;18.134;2023-09-19T07:50:41;100210.37;;;19.26;84.43
76598;BME280;65486;53.144;18.134;2023-09-19T07:53:10;100216.59;;;19.29;84.31
76598;BME280;65486;53.144;18.134;2023-09-19T07:55:41;100213.83;;;19.33;84.24
76598;BME280;65486;53.144;18.134;2023-09-19T07:58:09;100220.98;;;19.34;84.10
76598;BME280;65486;53.144;18.134;2023-09-19T08:00:36;100228.02;;;19.34;84.01
76598;BME280;65486;53.144;18.134;2023-09-19T08:03:03;100233.80;;;19.32;83.49
76598;BME280;65486;53.144;18.134;2023-09-19T08:05:32;100232.79;;;19.26;83.29
76598;BME280;65486;53.144;18.134;2023-09-19T08:08:01;100233.52;;;19.19;83.51
76598;BME280;65486;53.144;18.134;2023-09-19T08:10:29;100235.02;;;19.14;83.74
76598;BME280;65486;53.144;18.134;2023-09-19T08:13:01;100239.43;;;19.06;83.82
76598;BME280;65486;53.144;18.134;2023-09-19T08:15:29;100236.02;;;19.00;83.99
76598;BME280;65486;53.144;18.134;2023-09-19T08:17:56;100235.66;;;18.97;83.94
76598;BME280;65486;53.144;18.134;2023-09-19T08:20:23;100238.41;;;18.97;84.01
76598;BME280;65486;53.144;18.134;2023-09-19T08:22:51;100242.83;;;19.02;83.99
76598;BME280;65486;53.144;18.134;2023-09-19T08:25:21;100243.20;;;19.11;83.98
76598;BME280;65486;53.144;18.134;2023-09-19T08:27:49;100245.52;;;19.26;83.93
76598;BME280;65486;53.144;18.134;2023-09-19T08:30:23;100245.84;;;19.42;83.47
76598;BME280;65486;53.144;18.134;2023-09-19T08:32:50;100248.71;;;19.60;83.25
76598;BME280;65486;53.144;18.134;2023-09-19T08:35:18;100250.49;;;19.72;83.15
76598;BME280;65486;53.144;18.134;2023-09-19T08:37:46;100248.53;;;19.82;82.84
76598;BME280;65486;53.144;18.134;2023-09-19T08:40:13;100251.31;;;19.84;82.25
76598;BME280;65486;53.144;18.134;2023-09-19T08:42:51;100263.60;;;19.81;82.03
76598;BME280;65486;53.144;18.134;2023-09-19T08:45:21;100273.70;;;19.78;81.82
76598;BME280;65486;53.144;18.134;2023-09-19T08:50:37;100278.54;;;19.76;81.79
76598;BME280;65486;53.144;18.134;2023-09-19T08:53:11;100279.29;;;19.84;81.53
76598;BME280;65486;53.144;18.134;2023-09-19T08:55:46;100278.58;;;19.97;81.09
76598;BME280;65486;53.144;18.134;2023-09-19T08:58:16;100280.88;;;20.12;80.97
76598;BME280;65486;53.144;18.134;2023-09-19T09:00:58;100276.34;;;20.25;80.59
76598;BME280;65486;53.144;18.134;2023-09-19T09:03:32;100279.33;;;20.40;79.80
76598;BME280;65486;53.144;18.134;2023-09-19T09:06:09;100276.48;;;20.60;79.41
76598;BME280;65486;53.144;18.134;2023-09-19T09:08:38;100270.17;;;20.78;78.97
76598;BME280;65486;53.144;18.134;2023-09-19T09:11:16;100270.57;;;21.04;78.19
76598;BME280;65486;53.144;18.134;2023-09-19T09:13:44;100267.52;;;21.38;77.48
76598;BME280;65486;53.144;18.134;2023-09-19T09:16:14;100268.69;;;21.72;76.05
76598;BME280;65486;53.144;18.134;2023-09-19T09:18:48;100270.20;;;22.02;74.93
76598;BME280;65486;53.144;18.134;2023-09-19T09:21:25;100270.02;;;21.92;75.32
76598;BME280;65486;53.144;18.134;2023-09-19T09:23:52;100276.31;;;21.87;75.35
76598;BME280;65486;53.144;18.134;2023-09-19T09:26:53;100279.37;;;21.86;74.51
76598;BME280;65486;53.144;18.134;2023-09-19T09:29:41;100275.70;;;21.69;75.06
76598;BME280;65486;53.144;18.134;2023-09-19T09:32:18;100283.90;;;21.54;75.08
76598;BME280;65486;53.144;18.134;2023-09-19T09:34:49;100287.84;;;21.44;74.80
76598;BME280;65486;53.144;18.134;2023-09-19T09:37:17;100286.15;;;21.56;74.41
76598;BME280;65486;53.144;18.134;2023-09-19T09:39:52;100288.92;;;21.61;73.92
76598;BME280;65486;53.144;18.134;2023-09-19T09:42:46;100281.49;;;21.53;73.82
76598;BME280;65486;53.144;18.134;2023-09-19T09:45:21;100282.68;;;21.71;73.14
76598;BME280;65486;53.144;18.134;2023-09-19T09:48:24;100284.80;;;22.02;72.09
76598;BME280;65486;53.144;18.134;2023-09-19T09:50:58;100285.24;;;22.29;71.21
76598;BME280;65486;53.144;18.134;2023-09-19T09:53:31;100290.92;;;22.52;70.10
76598;BME280;65486;53.144;18.134;2023-09-19T09:56:06;100291.19;;;22.79;68.61
76598;BME280;65486;53.144;18.134;2023-09-19T09:58:51;100286.74;;;23.04;68.08
76598;BME280;65486;53.144;18.134;2023-09-19T10:01:22;100290.59;;;23.42;67.21
76598;BME280;65486;53.144;18.134;2023-09-19T10:03:59;100283.56;;;23.62;66.73
76598;BME280;65486;53.144;18.134;2023-09-19T10:06:40;100285.05;;;23.82;66.40
76598;BME280;65486;53.144;18.134;2023-09-19T10:09:16;100287.28;;;24.16;65.83
76598;BME280;65486;53.144;18.134;2023-09-19T10:12:06;100290.13;;;24.84;63.36
76598;BME280;65486;53.144;18.134;2023-09-19T10:14:38;100287.55;;;25.59;61.86
76598;BME280;65486;53.144;18.134;2023-09-19T10:17:10;100285.95;;;25.49;60.52
76598;BME280;65486;53.144;18.134;2023-09-19T10:19:54;100289.66;;;25.40;60.60
76598;BME280;65486;53.144;18.134;2023-09-19T10:22:34;100292.92;;;25.24;59.35
76598;BME280;65486;53.144;18.134;2023-09-19T10:25:06;100297.80;;;25.07;58.78
76598;BME280;65486;53.144;18.134;2023-09-19T10:27:36;100308.84;;;24.83;59.21
76598;BME280;65486;53.144;18.134;2023-09-19T10:30:09;100319.32;;;24.49;59.45
76598;BME280;65486;53.144;18.134;2023-09-19T10:32:39;100324.86;;;24.19;59.66
76598;BME280;65486;53.144;18.134;2023-09-19T10:35:07;100328.77;;;23.92;59.31
76598;BME280;65486;53.144;18.134;2023-09-19T10:37:37;100332.74;;;23.61;59.39
76598;BME280;65486;53.144;18.134;2023-09-19T10:40:06;100327.62;;;23.35;59.92
76598;BME280;65486;53.144;18.134;2023-09-19T10:42:54;100334.76;;;23.19;59.95
76598;BME280;65486;53.144;18.134;2023-09-19T10:45:24;100338.02;;;23.17;59.93
76598;BME280;65486;53.144;18.134;2023-09-19T10:47:53;100335.59;;;23.36;58.96
76598;BME280;65486;53.144;18.134;2023-09-19T10:50:21;100330.50;;;23.69;58.49
76598;BME280;65486;53.144;18.134;2023-09-19T10:52:49;100333.66;;;24.18;57.25
76598;BME280;65486;53.144;18.134;2023-09-19T10:55:20;100332.30;;;24.73;56.48
76598;BME280;65486;53.144;18.134;2023-09-19T10:57:51;100319.18;;;25.11;55.17
76598;BME280;65486;53.144;18.134;2023-09-19T11:00:21;100319.56;;;25.50;54.98
76598;BME280;65486;53.144;18.134;2023-09-19T11:05:40;100313.45;;;25.84;53.53
76598;BME280;65486;53.144;18.134;2023-09-19T11:08:13;100307.42;;;25.86;51.98
76598;BME280;65486;53.144;18.134;2023-09-19T11:10:53;100304.65;;;25.74;52.71
76598;BME280;65486;53.144;18.134;2023-09-19T11:13:29;100298.40;;;25.67;52.83
76598;BME280;65486;53.144;18.134;2023-09-19T11:27:13;100309.70;;;25.53;52.00
76598;BME280;65486;53.144;18.134;2023-09-19T11:29:42;100313.19;;;25.54;51.28
76598;BME280;65486;53.144;18.134;2023-09-19T11:32:11;100320.02;;;25.59;50.68
76598;BME280;65486;53.144;18.134;2023-09-19T11:34:45;100315.58;;;25.65;50.99
76598;BME280;65486;53.144;18.134;2023-09-19T11:40:07;100324.04;;;25.70;49.27
76598;BME280;65486;53.144;18.134;2023-09-19T11:42:48;100318.41;;;25.56;49.19
76598;BME280;65486;53.144;18.134;2023-09-19T11:48:18;100314.52;;;25.42;47.55
76598;BME280;65486;53.144;18.134;2023-09-19T11:50:45;100323.17;;;25.28;47.11
76598;BME280;65486;53.144;18.134;2023-09-19T11:53:15;100332.77;;;25.02;45.86
76598;BME280;65486;53.144;18.134;2023-09-19T11:55:46;100336.83;;;24.89;47.30
76598;BME280;65486;53.144;18.134;2023-09-19T11:58:15;100340.55;;;24.82;47.13
76598;BME280;65486;53.144;18.134;2023-09-19T12:00:45;100344.41;;;24.76;46.45
76598;BME280;65486;53.144;18.134;2023-09-19T12:03:13;100349.48;;;24.62;46.31
76598;BME280;65486;53.144;18.134;2023-09-19T12:05:47;100352.27;;;24.54;46.86
76598;BME280;65486;53.144;18.134;2023-09-19T12:08:16;100358.80;;;24.43;47.09
76598;BME280;65486;53.144;18.134;2023-09-19T12:10:49;100353.21;;;24.31;46.88
76598;BME280;65486;53.144;18.134;2023-09-19T12:13:19;100359.30;;;24.29;46.26
76598;BME280;65486;53.144;18.134;2023-09-19T12:15:47;100357.89;;;24.31;47.02
76598;BME280;65486;53.144;18.134;2023-09-19T12:18:28;100358.23;;;24.44;46.61
76598;BME280;65486;53.144;18.134;2023-09-19T12:20:56;100358.75;;;24.58;44.95
76598;BME280;65486;53.144;18.134;2023-09-19T12:23:25;100358.85;;;24.64;44.63
76598;BME280;65486;53.144;18.134;2023-09-19T12:25:54;100364.84;;;24.73;44.32
76598;BME280;65486;53.144;18.134;2023-09-19T12:28:27;100366.92;;;24.73;44.52
76598;BME280;65486;53.144;18.134;2023-09-19T12:31:06;100368.95;;;24.73;44.83
76598;BME280;65486;53.144;18.134;2023-09-19T12:33:35;100373.23;;;24.70;44.30
76598;BME280;65486;53.144;18.134;2023-09-19T12:36:22;100374.23;;;24.66;44.21
76598;BME280;65486;53.144;18.134;2023-09-19T12:39:22;100381.17;;;24.57;43.90
76598;BME280;65486;53.144;18.134;2023-09-19T12:41:51;100383.14;;;24.52;43.74
76598;BME280;65486;53.144;18.134;2023-09-19T12:44:20;100387.66;;;24.37;43.34
76598;BME280;65486;53.144;18.134;2023-09-19T12:46:48;100380.79;;;24.15;43.20
76598;BME280;65486;53.144;18.134;2023-09-19T12:49:18;100382.73;;;23.99;43.46
76598;BME280;65486;53.144;18.134;2023-09-19T12:51:54;100383.01;;;23.82;44.25
76598;BME280;65486;53.144;18.134;2023-09-19T12:54:22;100386.55;;;23.64;44.95
76598;BME280;65486;53.144;18.134;2023-09-19T12:56:52;100387.64;;;23.52;45.64
76598;BME280;65486;53.144;18.134;2023-09-19T12:59:29;100391.85;;;23.48;46.21
76598;BME280;65486;53.144;18.134;2023-09-19T13:02:04;100390.99;;;23.43;46.71
76598;BME280;65486;53.144;18.134;2023-09-19T13:04:34;100392.14;;;23.33;46.99
76598;BME280;65486;53.144;18.134;2023-09-19T13:07:07;100400.91;;;23.22;47.22
76598;BME280;65486;53.144;18.134;2023-09-19T13:09:36;100399.35;;;23.14;47.52
76598;BME280;65486;53.144;18.134;2023-09-19T13:12:34;100393.98;;;23.08;47.10
76598;BME280;65486;53.144;18.134;2023-09-19T13:15:10;100391.78;;;22.96;46.09
76598;BME280;65486;53.144;18.134;2023-09-19T13:17:46;100398.32;;;22.76;45.99
76598;BME280;65486;53.144;18.134;2023-09-19T13:20:23;100397.52;;;22.56;45.90
76598;BME280;65486;53.144;18.134;2023-09-19T13:22:59;100404.83;;;22.41;46.44
76598;BME280;65486;53.144;18.134;2023-09-19T13:25:38;100403.32;;;22.37;46.41
76598;BME280;65486;53.144;18.134;2023-09-19T13:28:10;100404.95;;;22.38;46.24
76598;BME280;65486;53.144;18.134;2023-09-19T13:30:39;100408.19;;;22.34;46.29
76598;BME280;65486;53.144;18.134;2023-09-19T13:33:10;100416.45;;;22.31;46.59
76598;BME280;65486;53.144;18.134;2023-09-19T13:35:45;100417.92;;;22.31;46.53
76598;BME280;65486;53.144;18.134;2023-09-19T13:38:13;100413.79;;;22.31;46.17